createdAt,value
2019-01-10T00:00:52.940Z,21.40
2019-01-10T00:03:21.134Z,21.43
2019-01-10T00:05:49.759Z,21.38
2019-01-10T00:08:17.978Z,21.40
2019-01-10T00:10:46.206Z,21.39
2019-01-10T00:13:14.406Z,21.37
2019-01-10T00:15:42.890Z,21.37
2019-01-10T00:18:11.086Z,21.35
2019-01-10T00:20:39.590Z,21.36
2019-01-10T00:23:07.762Z,21.35
2019-01-10T00:25:36.478Z,21.38
2019-01-10T00:28:04.638Z,21.29
2019-01-10T00:30:33.233Z,21.36
2019-01-10T00:33:01.442Z,21.36
2019-01-10T00:35:29.696Z,21.40
2019-01-10T00:37:57.869Z,21.36
2019-01-10T00:40:26.060Z,21.31
2019-01-10T00:42:54.238Z,21.29
2019-01-10T00:45:22.509Z,21.32
2019-01-10T00:47:50.729Z,21.35
2019-01-10T00:50:20.111Z,21.33
2019-01-10T00:52:48.315Z,21.33
2019-01-10T00:55:16.461Z,21.35
2019-01-10T00:57:44.723Z,21.35
2019-01-10T01:00:14.491Z,21.43
2019-01-10T01:02:42.694Z,21.32
2019-01-10T01:05:11.558Z,21.31
2019-01-10T01:07:39.838Z,21.37
2019-01-10T01:10:09.307Z,21.36
2019-01-10T01:12:37.515Z,21.32
2019-01-10T01:15:06.330Z,21.36
2019-01-10T01:17:34.502Z,21.39
2019-01-10T01:20:02.727Z,21.35
2019-01-10T01:22:30.958Z,20.86
2019-01-10T01:24:59.318Z,21.39
2019-01-10T01:27:27.484Z,21.28
2019-01-10T01:29:55.664Z,21.38
2019-01-10T01:32:23.838Z,21.40
2019-01-10T01:34:52.051Z,21.35
2019-01-10T01:37:20.237Z,21.37
2019-01-10T01:39:48.346Z,21.39
2019-01-10T01:42:16.529Z,21.39
2019-01-10T01:44:44.742Z,21.38
2019-01-10T01:47:12.925Z,21.34
2019-01-10T01:49:41.199Z,21.41
2019-01-10T01:52:09.407Z,21.44
2019-01-10T01:54:37.568Z,21.42
2019-01-10T01:57:05.815Z,21.43
2019-01-10T01:59:34.031Z,21.41
2019-01-10T02:02:02.245Z,21.41
2019-01-10T02:04:30.520Z,21.36
2019-01-10T02:06:58.811Z,21.38
2019-01-10T02:09:26.965Z,21.39
2019-01-10T02:11:55.202Z,21.46
2019-01-10T02:14:23.352Z,21.43
2019-01-10T02:16:51.566Z,21.49
2019-01-10T02:19:19.713Z,21.43
2019-01-10T02:21:47.914Z,21.36
2019-01-10T02:24:16.105Z,21.38
2019-01-10T02:26:44.234Z,21.40
2019-01-10T02:29:12.452Z,21.43
2019-01-10T02:31:40.590Z,21.37
2019-01-10T02:34:08.772Z,21.46
2019-01-10T02:36:37.021Z,21.39
2019-01-10T02:39:06.619Z,21.43
2019-01-10T02:41:34.796Z,21.42
2019-01-10T02:44:02.946Z,21.40
2019-01-10T02:46:31.061Z,21.43
2019-01-10T02:49:01.403Z,21.49
2019-01-10T02:51:29.630Z,21.41
2019-01-10T02:53:57.821Z,21.43
2019-01-10T02:56:25.983Z,21.46
2019-01-10T02:58:54.129Z,21.39
2019-01-10T03:01:22.376Z,21.42
2019-01-10T03:03:50.497Z,21.46
2019-01-10T03:06:18.681Z,21.43
2019-01-10T03:08:46.865Z,21.45
2019-01-10T03:11:15.115Z,21.48
2019-01-10T03:13:43.271Z,21.46
2019-01-10T03:16:11.468Z,21.46
2019-01-10T03:18:39.649Z,21.42
2019-01-10T03:21:07.813Z,21.45
2019-01-10T03:23:35.982Z,21.39
2019-01-10T03:26:04.216Z,21.36
2019-01-10T03:28:32.358Z,21.43
2019-01-10T03:31:02.645Z,21.41
2019-01-10T03:33:30.794Z,21.40
2019-01-10T03:35:58.967Z,21.34
2019-01-10T03:38:27.151Z,21.40
2019-01-10T03:40:55.346Z,21.41
2019-01-10T03:43:23.564Z,21.41
2019-01-10T03:45:51.740Z,21.40
2019-01-10T03:48:19.888Z,21.34
2019-01-10T03:50:48.140Z,21.42
2019-01-10T03:53:16.284Z,21.43
2019-01-10T03:55:44.453Z,21.44
2019-01-10T03:58:12.642Z,21.39
2019-01-10T04:00:40.860Z,21.41
2019-01-10T04:03:09.034Z,21.39
2019-01-10T04:05:37.217Z,21.44
2019-01-10T04:08:05.448Z,21.43
2019-01-10T04:10:33.617Z,21.38
2019-01-10T04:13:01.840Z,21.34
2019-01-10T04:15:30.042Z,21.38
2019-01-10T04:17:58.170Z,21.38
2019-01-10T04:20:26.359Z,21.43
2019-01-10T04:22:54.531Z,21.43
2019-01-10T04:25:22.805Z,21.37
2019-01-10T04:27:51.025Z,21.40
2019-01-10T04:30:22.394Z,21.41
2019-01-10T04:32:50.623Z,21.44
2019-01-10T04:35:18.804Z,21.38
2019-01-10T04:37:47.101Z,21.34
2019-01-10T04:40:16.967Z,21.42
2019-01-10T04:42:45.150Z,21.41
2019-01-10T04:45:13.662Z,21.45
2019-01-10T04:47:41.950Z,21.48
2019-01-10T04:50:10.647Z,21.38
2019-01-10T04:52:38.799Z,21.45
2019-01-10T04:55:07.267Z,21.45
2019-01-10T04:57:35.486Z,21.43
2019-01-10T05:00:03.948Z,21.49
2019-01-10T05:02:32.617Z,21.45
2019-01-10T05:05:01.925Z,21.47
2019-01-10T05:07:31.108Z,21.37
2019-01-10T05:09:59.333Z,21.44
2019-01-10T05:12:27.781Z,21.47
2019-01-10T05:14:56.057Z,21.46
2019-01-10T05:17:24.309Z,21.44
2019-01-10T05:19:52.711Z,21.45
2019-01-10T05:22:22.917Z,21.47
2019-01-10T05:24:51.324Z,21.42
2019-01-10T05:27:19.810Z,21.43
2019-01-10T05:29:48.243Z,21.51
2019-01-10T05:32:16.539Z,21.50
2019-01-10T05:34:44.827Z,21.53
2019-01-10T05:37:13.258Z,21.51
2019-01-10T05:39:47.416Z,21.52
2019-01-10T05:42:13.507Z,21.49
2019-01-10T05:44:47.809Z,21.48
2019-01-10T05:47:16.193Z,21.51
2019-01-10T05:49:44.578Z,21.53
2019-01-10T05:52:12.770Z,21.58
2019-01-10T05:54:40.991Z,21.48
2019-01-10T05:57:09.422Z,21.42
2019-01-10T05:59:37.997Z,21.52
2019-01-10T06:02:06.439Z,21.50
2019-01-10T06:04:34.623Z,21.48
2019-01-10T06:07:02.886Z,21.48
2019-01-10T06:09:31.145Z,21.53
2019-01-10T06:11:59.498Z,21.50
2019-01-10T06:14:35.517Z,21.49
2019-01-10T06:16:57.641Z,21.44
2019-01-10T06:19:26.969Z,21.41
2019-01-10T06:21:55.423Z,21.45
2019-01-10T06:24:23.691Z,21.50
2019-01-10T06:26:51.882Z,21.49
2019-01-10T06:29:20.094Z,21.50
2019-01-10T06:31:48.422Z,21.52
2019-01-10T06:34:16.702Z,21.54
2019-01-10T06:36:44.917Z,21.49
2019-01-10T06:39:13.159Z,21.48
2019-01-10T06:41:41.368Z,21.45
2019-01-10T06:44:09.581Z,21.48
2019-01-10T06:46:37.824Z,21.46
2019-01-10T06:49:07.625Z,21.48
2019-01-10T06:51:36.305Z,21.41
2019-01-10T06:54:04.561Z,21.44
2019-01-10T06:56:32.797Z,21.47
2019-01-10T06:59:01.028Z,21.42
2019-01-10T07:01:29.249Z,21.42
2019-01-10T07:03:57.537Z,21.45
2019-01-10T07:06:25.746Z,21.43
2019-01-10T07:08:53.949Z,21.47
2019-01-10T07:11:22.196Z,21.49
2019-01-10T07:13:50.354Z,21.50
2019-01-10T07:16:18.512Z,21.46
2019-01-10T07:18:46.737Z,21.42
2019-01-10T07:21:14.854Z,21.42
2019-01-10T07:23:46.414Z,21.44
2019-01-10T07:26:14.626Z,21.44
2019-01-10T07:28:42.870Z,21.43
2019-01-10T07:31:30.242Z,21.43
2019-01-10T07:34:01.982Z,21.42
2019-01-10T07:36:30.104Z,21.47
2019-01-10T07:38:58.261Z,21.47
2019-01-10T07:41:26.361Z,21.49
2019-01-10T07:43:54.606Z,21.45
2019-01-10T07:46:22.733Z,21.44
2019-01-10T07:48:50.851Z,21.37
2019-01-10T07:51:19.012Z,21.37
2019-01-10T07:53:47.126Z,21.42
2019-01-10T07:56:15.299Z,21.43
2019-01-10T07:58:43.418Z,21.36
2019-01-10T08:01:11.559Z,21.47
2019-01-10T08:03:39.692Z,21.45
2019-01-10T08:06:07.823Z,21.45
2019-01-10T08:08:35.970Z,21.49
2019-01-10T08:11:04.099Z,21.44
2019-01-10T08:13:32.214Z,21.39
2019-01-10T08:16:00.350Z,21.41
2019-01-10T08:18:28.465Z,21.43
2019-01-10T08:20:56.609Z,21.43
2019-01-10T08:23:24.737Z,21.39
2019-01-10T08:25:52.874Z,21.39
2019-01-10T08:28:21.013Z,21.37
2019-01-10T08:30:49.138Z,21.44
2019-01-10T08:33:17.367Z,21.49
2019-01-10T08:35:45.792Z,21.42
2019-01-10T08:38:13.909Z,21.42
2019-01-10T08:40:42.037Z,21.47
2019-01-10T08:43:11.778Z,21.44
2019-01-10T08:45:40.009Z,21.44
2019-01-10T08:48:09.256Z,21.47
2019-01-10T08:50:37.370Z,21.47
2019-01-10T08:53:05.506Z,21.46
2019-01-10T08:55:33.635Z,21.46
2019-01-10T08:58:01.796Z,21.49
2019-01-10T09:00:29.930Z,21.58
2019-01-10T09:02:58.066Z,21.53
2019-01-10T09:05:26.234Z,21.53
2019-01-10T09:07:54.318Z,21.56
2019-01-10T09:10:29.733Z,21.55
2019-01-10T09:12:57.854Z,21.56
2019-01-10T09:15:34.420Z,21.54
2019-01-10T09:17:55.811Z,21.58
2019-01-10T09:20:23.946Z,21.63
2019-01-10T09:22:52.121Z,21.59
2019-01-10T09:25:20.249Z,21.58
2019-01-10T09:27:48.381Z,21.55
2019-01-10T09:30:17.534Z,21.55
2019-01-10T09:32:45.650Z,21.62
2019-01-10T09:35:13.802Z,21.56
2019-01-10T09:37:41.938Z,21.61
2019-01-10T09:40:11.355Z,21.57
2019-01-10T09:42:39.474Z,21.60
2019-01-10T09:45:08.053Z,21.56
2019-01-10T09:47:37.134Z,21.64
2019-01-10T09:50:05.881Z,21.59
2019-01-10T09:52:34.018Z,21.49
2019-01-10T09:55:02.133Z,21.59
2019-01-10T09:57:30.257Z,21.55
2019-01-10T09:59:58.397Z,21.63
2019-01-10T10:02:26.521Z,21.55
2019-01-10T10:04:54.707Z,21.60
2019-01-10T10:07:22.906Z,21.59
2019-01-10T10:09:51.065Z,21.59
2019-01-10T10:12:19.218Z,21.56
2019-01-10T10:14:47.330Z,21.58
2019-01-10T10:17:15.477Z,21.60
2019-01-10T10:19:43.625Z,21.50
2019-01-10T10:22:11.812Z,21.55
2019-01-10T10:24:39.939Z,21.55
2019-01-10T10:27:08.058Z,21.52
2019-01-10T10:29:36.182Z,21.51
2019-01-10T10:32:04.330Z,21.58
2019-01-10T10:34:32.464Z,21.58
2019-01-10T10:37:00.670Z,21.62
2019-01-10T10:39:28.804Z,21.56
2019-01-10T10:41:58.423Z,21.58
2019-01-10T10:44:26.598Z,21.59
2019-01-10T10:46:54.755Z,21.54
2019-01-10T10:49:22.986Z,21.11
2019-01-10T10:51:51.136Z,21.56
2019-01-10T10:54:19.310Z,21.60
2019-01-10T10:56:47.607Z,21.62
2019-01-10T10:59:15.858Z,21.56
2019-01-10T11:01:44.257Z,21.58
2019-01-10T11:04:12.378Z,21.61
2019-01-10T11:06:40.538Z,21.56
2019-01-10T11:09:09.687Z,21.53
2019-01-10T11:11:37.936Z,21.59
2019-01-10T11:14:06.117Z,21.46
2019-01-10T11:16:34.294Z,21.59
2019-01-10T11:19:02.565Z,21.58
2019-01-10T11:21:30.801Z,21.55
2019-01-10T11:23:58.993Z,21.65
2019-01-10T11:26:27.155Z,21.65
2019-01-10T11:28:55.378Z,21.65
2019-01-10T11:31:23.642Z,21.64
2019-01-10T11:33:51.805Z,21.64
2019-01-10T11:36:20.091Z,21.69
2019-01-10T11:38:48.241Z,21.62
2019-01-10T11:41:16.385Z,21.66
2019-01-10T11:43:44.589Z,21.65
2019-01-10T11:46:19.575Z,21.75
2019-01-10T11:48:43.171Z,21.70
2019-01-10T11:51:11.453Z,21.65
2019-01-10T11:53:39.626Z,21.65
2019-01-10T11:56:07.802Z,21.64
2019-01-10T11:58:35.996Z,21.61
2019-01-10T12:01:04.226Z,21.66
2019-01-10T12:03:32.428Z,21.63
2019-01-10T12:06:00.607Z,21.73
2019-01-10T12:08:28.809Z,21.69
2019-01-10T12:10:57.026Z,21.72
2019-01-10T12:13:25.196Z,21.68
2019-01-10T12:15:53.349Z,21.71
2019-01-10T12:18:21.548Z,21.65
2019-01-10T12:20:49.747Z,21.67
2019-01-10T12:23:18.167Z,21.65
2019-01-10T12:25:46.457Z,21.62
2019-01-10T12:28:14.594Z,21.63
2019-01-10T12:30:42.770Z,21.62
2019-01-10T12:33:10.908Z,21.64
2019-01-10T12:35:39.077Z,21.61
2019-01-10T12:38:07.258Z,21.63
2019-01-10T12:40:35.414Z,21.64
2019-01-10T12:43:03.601Z,21.62
2019-01-10T12:45:31.787Z,21.66
2019-01-10T12:48:01.652Z,21.61
2019-01-10T12:50:31.022Z,21.60
2019-01-10T12:52:59.486Z,21.61
2019-01-10T12:55:29.179Z,21.62
2019-01-10T12:57:57.409Z,21.56
2019-01-10T13:00:28.327Z,21.65
2019-01-10T13:02:56.486Z,21.62
2019-01-10T13:05:24.831Z,21.59
2019-01-10T13:07:53.082Z,21.56
2019-01-10T13:10:21.281Z,19.50
2019-01-10T13:12:49.611Z,21.62
2019-01-10T13:15:21.910Z,21.65
2019-01-10T13:17:50.079Z,21.62
2019-01-10T13:20:18.217Z,21.69
2019-01-10T13:22:46.399Z,21.58
2019-01-10T13:25:15.622Z,21.60
2019-01-10T13:27:43.877Z,21.69
2019-01-10T13:30:13.702Z,21.61
2019-01-10T13:32:41.846Z,21.64
2019-01-10T13:35:10.045Z,21.58
2019-01-10T13:37:38.197Z,21.65
2019-01-10T13:40:06.329Z,21.66
2019-01-10T13:42:34.550Z,21.69
2019-01-10T13:45:02.713Z,21.68
2019-01-10T13:47:30.986Z,21.61
2019-01-10T13:49:59.150Z,21.60
2019-01-10T13:52:27.305Z,21.57
2019-01-10T13:54:55.497Z,21.55
2019-01-10T13:57:25.732Z,21.58
2019-01-10T13:59:53.862Z,21.57
2019-01-10T14:02:22.005Z,21.61
2019-01-10T14:04:50.189Z,21.58
2019-01-10T14:07:18.305Z,21.63
2019-01-10T14:09:46.474Z,21.63
2019-01-10T14:12:14.595Z,21.65
2019-01-10T14:14:42.805Z,21.64
2019-01-10T14:17:10.958Z,21.60
2019-01-10T14:19:39.099Z,21.63
2019-01-10T14:22:07.237Z,21.60
2019-01-10T14:24:35.354Z,21.64
2019-01-10T14:27:03.479Z,21.58
2019-01-10T14:29:31.616Z,21.64
2019-01-10T14:31:59.743Z,21.59
2019-01-10T14:34:27.859Z,21.53
2019-01-10T14:36:55.990Z,21.61
2019-01-10T14:39:24.395Z,21.55
2019-01-10T14:41:52.547Z,21.60
2019-01-10T14:44:20.661Z,21.58
2019-01-10T14:46:48.794Z,21.55
2019-01-10T14:49:17.361Z,21.55
2019-01-10T14:51:45.502Z,21.52
2019-01-10T14:54:13.750Z,21.52
2019-01-10T14:56:41.897Z,21.51
2019-01-10T14:59:10.020Z,21.48
2019-01-10T15:01:38.137Z,21.39
2019-01-10T15:04:06.266Z,21.44
2019-01-10T15:06:34.418Z,21.43
2019-01-10T15:09:02.597Z,21.42
2019-01-10T15:11:30.783Z,21.41
2019-01-10T15:13:58.926Z,21.39
2019-01-10T15:16:27.062Z,21.37
2019-01-10T15:18:55.233Z,21.44
2019-01-10T15:21:23.442Z,21.40
2019-01-10T15:23:51.554Z,21.44
2019-01-10T15:26:19.676Z,21.43
2019-01-10T15:28:47.790Z,21.40
2019-01-10T15:31:15.939Z,21.41
2019-01-10T15:33:44.054Z,21.39
2019-01-10T15:36:12.655Z,21.34
2019-01-10T15:38:40.812Z,21.41
2019-01-10T15:41:09.038Z,21.34
2019-01-10T15:43:37.161Z,21.36
2019-01-10T15:46:05.281Z,21.34
2019-01-10T15:48:33.406Z,21.36
2019-01-10T15:51:01.553Z,21.34
2019-01-10T15:53:29.676Z,21.32
2019-01-10T15:55:57.785Z,21.32
2019-01-10T15:58:25.922Z,21.27
2019-01-10T16:00:54.059Z,21.31
2019-01-10T16:03:22.186Z,21.35
2019-01-10T16:05:50.293Z,21.25
2019-01-10T16:08:18.426Z,21.30
2019-01-10T16:10:46.621Z,21.33
2019-01-10T16:13:14.741Z,21.33
2019-01-10T16:15:42.899Z,21.32
2019-01-10T16:18:11.014Z,21.36
2019-01-10T16:20:39.145Z,21.33
2019-01-10T16:23:07.266Z,21.33
2019-01-10T16:25:35.394Z,21.30
2019-01-10T16:28:03.534Z,21.33
2019-01-10T16:30:31.804Z,21.36
2019-01-10T16:33:00.062Z,21.35
2019-01-10T16:35:28.150Z,21.37
2019-01-10T16:37:56.254Z,21.32
2019-01-10T16:40:24.411Z,21.41
2019-01-10T16:42:52.529Z,21.41
2019-01-10T16:45:21.798Z,21.42
2019-01-10T16:47:49.938Z,21.34
2019-01-10T16:50:18.063Z,21.41
2019-01-10T16:52:46.187Z,21.34
2019-01-10T16:55:14.356Z,21.38
2019-01-10T16:57:42.569Z,21.35
2019-01-10T17:00:16.068Z,21.32
2019-01-10T17:02:44.186Z,21.34
2019-01-10T17:05:12.325Z,21.32
2019-01-10T17:07:40.462Z,21.27
2019-01-10T17:10:08.985Z,21.35
2019-01-10T17:12:37.106Z,21.31
2019-01-10T17:15:05.742Z,21.21
2019-01-10T17:17:37.705Z,21.27
2019-01-10T17:20:03.653Z,21.28
2019-01-10T17:22:31.831Z,21.20
2019-01-10T17:24:59.953Z,21.28
2019-01-10T17:27:28.074Z,21.22
2019-01-10T17:29:56.189Z,21.24
2019-01-10T17:32:24.316Z,21.24
2019-01-10T17:34:52.463Z,21.25
2019-01-10T17:37:20.590Z,21.20
2019-01-10T17:39:48.702Z,21.20
2019-01-10T17:42:16.854Z,21.20
2019-01-10T17:44:44.983Z,21.19
2019-01-10T17:47:13.092Z,21.19
2019-01-10T17:49:41.219Z,21.18
2019-01-10T17:52:09.342Z,21.20
2019-01-10T17:54:37.721Z,21.26
2019-01-10T17:57:05.841Z,21.21
2019-01-10T17:59:34.090Z,21.22
2019-01-10T18:02:02.245Z,21.22
2019-01-10T18:04:30.425Z,21.25
2019-01-10T18:06:58.521Z,21.19
2019-01-10T18:09:26.654Z,21.16
2019-01-10T18:11:54.802Z,21.17
2019-01-10T18:14:22.926Z,21.15
2019-01-10T18:16:51.200Z,21.12
2019-01-10T18:19:19.326Z,21.16
2019-01-10T18:21:47.465Z,21.22
2019-01-10T18:24:15.602Z,21.16
2019-01-10T18:26:43.811Z,21.12
2019-01-10T18:29:11.954Z,21.15
2019-01-10T18:31:40.066Z,21.12
2019-01-10T18:34:08.186Z,21.14
2019-01-10T18:36:36.314Z,21.15
2019-01-10T18:39:06.320Z,21.10
2019-01-10T18:41:34.439Z,21.17
2019-01-10T18:44:02.566Z,21.16
2019-01-10T18:46:30.702Z,21.18
2019-01-10T18:48:58.813Z,21.13
2019-01-10T18:51:26.971Z,21.13
2019-01-10T18:53:55.085Z,21.11
2019-01-10T18:56:23.293Z,21.12
2019-01-10T18:58:51.373Z,21.08
2019-01-10T19:01:19.511Z,21.03
2019-01-10T19:03:47.649Z,21.05
2019-01-10T19:06:15.766Z,21.03
2019-01-10T19:08:43.911Z,21.02
2019-01-10T19:11:12.034Z,21.03
2019-01-10T19:13:40.154Z,21.10
2019-01-10T19:16:08.274Z,21.09
2019-01-10T19:18:36.551Z,21.10
2019-01-10T19:21:04.645Z,21.08
2019-01-10T19:23:32.761Z,21.04
2019-01-10T19:26:00.906Z,21.01
2019-01-10T19:28:29.036Z,21.05
2019-01-10T19:30:57.226Z,21.04
2019-01-10T19:33:25.351Z,20.98
2019-01-10T19:35:53.462Z,20.99
2019-01-10T19:38:21.627Z,20.97
2019-01-10T19:40:49.745Z,21.00
2019-01-10T19:43:17.867Z,21.00
2019-01-10T19:45:45.986Z,20.98
2019-01-10T19:48:14.110Z,20.93
2019-01-10T19:50:42.230Z,20.97
2019-01-10T19:53:10.361Z,20.90
2019-01-10T19:55:38.485Z,20.95
2019-01-10T19:58:06.597Z,20.45
2019-01-10T20:00:39.123Z,20.90
2019-01-10T20:03:07.249Z,20.95
2019-01-10T20:05:35.381Z,20.96
2019-01-10T20:08:03.630Z,20.93
2019-01-10T20:10:31.794Z,20.95
2019-01-10T20:12:59.905Z,20.88
2019-01-10T20:15:28.026Z,20.87
2019-01-10T20:17:56.878Z,20.87
2019-01-10T20:20:43.313Z,20.89
2019-01-10T20:23:12.657Z,20.88
2019-01-10T20:25:41.301Z,20.84
2019-01-10T20:28:09.508Z,20.88
2019-01-10T20:30:37.626Z,20.86
2019-01-10T20:33:05.758Z,20.85
2019-01-10T20:35:33.877Z,20.83
2019-01-10T20:38:02.013Z,20.88
2019-01-10T20:40:30.144Z,20.92
2019-01-10T20:42:58.279Z,20.85
2019-01-10T20:45:26.385Z,20.86
2019-01-10T20:47:54.519Z,20.91
2019-01-10T20:50:22.635Z,20.84
2019-01-10T20:52:50.811Z,20.84
2019-01-10T20:55:18.939Z,20.84
2019-01-10T20:57:47.061Z,20.79
2019-01-10T21:00:16.426Z,20.83
2019-01-10T21:02:44.546Z,20.85
2019-01-10T21:05:12.730Z,20.86
2019-01-10T21:07:40.954Z,20.81
2019-01-10T21:10:10.021Z,20.79
2019-01-10T21:12:38.174Z,20.74
2019-01-10T21:15:07.189Z,20.78
2019-01-10T21:17:35.310Z,20.75
2019-01-10T21:20:03.442Z,20.78
2019-01-10T21:22:31.606Z,20.76
2019-01-10T21:24:59.755Z,20.75
2019-01-10T21:27:27.868Z,20.80
2019-01-10T21:29:56.003Z,20.74
2019-01-10T21:32:24.181Z,20.79
2019-01-10T21:34:52.338Z,20.78
2019-01-10T21:37:20.446Z,20.75
2019-01-10T21:39:48.571Z,20.74
2019-01-10T21:42:16.693Z,20.74
2019-01-10T21:44:44.805Z,20.68
2019-01-10T21:47:12.953Z,20.72
2019-01-10T21:49:41.082Z,20.75
2019-01-10T21:52:09.198Z,20.70
2019-01-10T21:54:39.138Z,20.75
2019-01-10T21:57:07.251Z,20.74
2019-01-10T21:59:35.398Z,20.75
2019-01-10T22:02:03.538Z,20.74
2019-01-10T22:04:31.667Z,20.68
2019-01-10T22:06:59.845Z,20.72
2019-01-10T22:09:28.030Z,20.70
2019-01-10T22:11:56.146Z,20.70
2019-01-10T22:14:24.266Z,20.68
2019-01-10T22:16:52.417Z,20.70
2019-01-10T22:19:20.538Z,20.18
2019-01-10T22:21:48.665Z,20.71
2019-01-10T22:24:16.809Z,20.69
2019-01-10T22:26:44.921Z,20.66
2019-01-10T22:29:13.150Z,20.62
2019-01-10T22:31:41.268Z,20.62
2019-01-10T22:34:09.410Z,20.62
2019-01-10T22:36:37.643Z,20.65
2019-01-10T22:39:07.470Z,20.61
2019-01-10T22:41:35.631Z,20.66
2019-01-10T22:44:03.736Z,20.61
2019-01-10T22:46:31.862Z,20.62
2019-01-10T22:48:59.979Z,20.59
2019-01-10T22:51:28.099Z,20.62
2019-01-10T22:53:56.218Z,20.56
2019-01-10T22:56:24.342Z,20.59
2019-01-10T22:58:52.481Z,20.57
2019-01-10T23:01:45.401Z,20.63
2019-01-10T23:04:14.631Z,20.56
2019-01-10T23:06:42.778Z,20.61
2019-01-10T23:09:10.897Z,20.63
2019-01-10T23:11:39.033Z,20.12
2019-01-10T23:14:07.450Z,20.64
2019-01-10T23:16:36.081Z,20.64
2019-01-10T23:19:04.818Z,20.65
2019-01-10T23:21:33.874Z,20.59
2019-01-10T23:24:12.006Z,20.57
2019-01-10T23:26:41.767Z,20.61
2019-01-10T23:29:09.947Z,20.60
2019-01-10T23:31:38.065Z,20.62
2019-01-10T23:34:10.314Z,20.61
2019-01-10T23:36:38.485Z,20.63
2019-01-10T23:39:19.785Z,20.53
2019-01-10T23:41:48.164Z,20.57
2019-01-10T23:44:16.282Z,20.56
2019-01-10T23:46:44.427Z,20.57
2019-01-10T23:49:12.550Z,20.60
2019-01-10T23:51:40.712Z,20.56
2019-01-10T23:54:08.857Z,20.58
2019-01-10T23:56:36.979Z,20.58
2019-01-10T23:59:05.096Z,20.56
